sensor_id;sensor_type;location;lat;lon;timestamp;pressure;altitude;pressure_sealevel;temperature;humidity
78444;BME280;67739;52.986;8.894;2023-10-13T00:02:10;101186.25;;;14.05;82.60
78444;BME280;67739;52.986;8.894;2023-10-13T00:04:36;101188.97;;;14.05;82.55
78444;BME280;67739;52.986;8.894;2023-10-13T00:07:03;101186.25;;;14.05;82.97
78444;BME280;67739;52.986;8.894;2023-10-13T00:09:29;101184.34;;;14.07;83.36
78444;BME280;67739;52.986;8.894;2023-10-13T00:12:01;101184.34;;;14.07;83.09
78444;BME280;67739;52.986;8.894;2023-10-13T00:14:27;101184.34;;;14.07;83.25
78444;BME280;67739;52.986;8.894;2023-10-13T00:17:00;101176.25;;;14.07;82.91
78444;BME280;67739;52.986;8.894;2023-10-13T00:19:33;101170.78;;;14.08;83.25
78444;BME280;67739;52.986;8.894;2023-10-13T00:22:13;101168.94;;;14.09;83.25
78444;BME280;67739;52.986;8.894;2023-10-13T00:24:43;101173.41;;;14.10;83.49
78444;BME280;67739;52.986;8.894;2023-10-13T00:29:59;101164.25;;;14.12;83.79
78444;BME280;67739;52.986;8.894;2023-10-13T00:32:44;101154.34;;;14.13;83.77
78444;BME280;67739;52.986;8.894;2023-10-13T00:35:11;101158.66;;;14.15;83.76
78444;BME280;67739;52.986;8.894;2023-10-13T00:37:39;101156.84;;;14.16;83.98
78444;BME280;67739;52.986;8.894;2023-10-13T00:40:11;101157.53;;;14.20;84.38
78444;BME280;67739;52.986;8.894;2023-10-13T00:42:55;101145.88;;;14.19;84.29
78444;BME280;67739;52.986;8.894;2023-10-13T00:45:31;101152.06;;;14.21;84.52
78444;BME280;67739;52.986;8.894;2023-10-13T00:47:59;101144.75;;;14.23;84.41
78444;BME280;67739;52.986;8.894;2023-10-13T00:50:26;101147.38;;;14.25;84.76
78444;BME280;67739;52.986;8.894;2023-10-13T00:52:53;101148.06;;;14.28;84.94
78444;BME280;67739;52.986;8.894;2023-10-13T00:55:19;101147.06;;;14.29;85.06
78444;BME280;67739;52.986;8.894;2023-10-13T00:57:53;101149.69;;;14.31;84.77
78444;BME280;67739;52.986;8.894;2023-10-13T01:00:22;101136.97;;;14.33;84.93
78444;BME280;67739;52.986;8.894;2023-10-13T01:02:53;101134.19;;;14.34;84.88
78444;BME280;67739;52.986;8.894;2023-10-13T01:05:22;101131.41;;;14.36;85.30
78444;BME280;67739;52.986;8.894;2023-10-13T01:07:49;101121.41;;;14.38;85.24
78444;BME280;67739;52.986;8.894;2023-10-13T01:10:18;101117.69;;;14.40;85.22
78444;BME280;67739;52.986;8.894;2023-10-13T01:12:44;101113.91;;;14.43;85.45
78444;BME280;67739;52.986;8.894;2023-10-13T01:15:11;101120.09;;;14.45;85.54
78444;BME280;67739;52.986;8.894;2023-10-13T01:17:38;101106.50;;;14.46;85.36
78444;BME280;67739;52.986;8.894;2023-10-13T01:20:04;101112.59;;;14.50;85.91
78444;BME280;67739;52.986;8.894;2023-10-13T01:22:30;101101.72;;;14.52;85.71
78444;BME280;67739;52.986;8.894;2023-10-13T01:24:57;101108.78;;;14.54;85.84
78444;BME280;67739;52.986;8.894;2023-10-13T01:27:29;101100.59;;;14.56;85.74
78444;BME280;67739;52.986;8.894;2023-10-13T01:29:55;101102.19;;;14.58;85.84
78444;BME280;67739;52.986;8.894;2023-10-13T01:32:35;101099.41;;;14.60;85.73
78444;BME280;67739;52.986;8.894;2023-10-13T01:35:08;101097.50;;;14.62;85.79
78444;BME280;67739;52.986;8.894;2023-10-13T01:37:33;101092.88;;;14.64;85.96
78444;BME280;67739;52.986;8.894;2023-10-13T01:39:59;101091.91;;;14.65;86.29
78444;BME280;67739;52.986;8.894;2023-10-13T01:42:24;101076.50;;;14.67;86.12
78444;BME280;67739;52.986;8.894;2023-10-13T01:44:51;101077.28;;;14.69;86.26
78444;BME280;67739;52.986;8.894;2023-10-13T01:47:17;101071.78;;;14.70;86.48
78444;BME280;67739;52.986;8.894;2023-10-13T01:49:43;101083.25;;;14.74;86.27
78444;BME280;67739;52.986;8.894;2023-10-13T01:52:12;101068.69;;;14.76;86.56
78444;BME280;67739;52.986;8.894;2023-10-13T01:54:41;101065.91;;;14.78;86.44
78444;BME280;67739;52.986;8.894;2023-10-13T01:57:10;101069.38;;;14.80;86.59
78444;BME280;67739;52.986;8.894;2023-10-13T01:59:47;101063.88;;;14.81;86.61
78444;BME280;67739;52.986;8.894;2023-10-13T02:02:14;101068.25;;;14.84;86.55
78444;BME280;67739;52.986;8.894;2023-10-13T02:04:40;101061.75;;;14.86;86.82
78444;BME280;67739;52.986;8.894;2023-10-13T02:07:15;101066.09;;;14.89;86.90
78444;BME280;67739;52.986;8.894;2023-10-13T02:09:41;101063.31;;;14.91;86.94
78444;BME280;67739;52.986;8.894;2023-10-13T02:12:08;101060.53;;;14.92;86.72
78444;BME280;67739;52.986;8.894;2023-10-13T02:14:35;101063.13;;;14.94;87.02
78444;BME280;67739;52.986;8.894;2023-10-13T02:17:02;101062.06;;;14.96;87.26
78444;BME280;67739;52.986;8.894;2023-10-13T02:19:42;101065.56;;;14.98;87.19
78444;BME280;67739;52.986;8.894;2023-10-13T02:22:11;101052.81;;;15.00;87.13
78444;BME280;67739;52.986;8.894;2023-10-13T02:24:37;101059.94;;;15.01;87.37
78444;BME280;67739;52.986;8.894;2023-10-13T02:27:08;101058.00;;;15.03;87.11
78444;BME280;67739;52.986;8.894;2023-10-13T02:29:40;101050.69;;;15.05;87.52
78444;BME280;67739;52.986;8.894;2023-10-13T02:32:06;101042.47;;;15.07;87.50
78444;BME280;67739;52.986;8.894;2023-10-13T02:34:38;101037.00;;;15.08;87.73
78444;BME280;67739;52.986;8.894;2023-10-13T02:37:09;101028.69;;;15.11;87.40
78444;BME280;67739;52.986;8.894;2023-10-13T02:39:35;101029.47;;;15.13;87.66
78444;BME280;67739;52.986;8.894;2023-10-13T02:42:01;101018.53;;;15.15;87.72
78444;BME280;67739;52.986;8.894;2023-10-13T02:44:26;101027.41;;;15.17;87.80
78444;BME280;67739;52.986;8.894;2023-10-13T02:46:55;101026.44;;;15.18;87.69
78444;BME280;67739;52.986;8.894;2023-10-13T02:49:25;101018.16;;;15.21;87.46
78444;BME280;67739;52.986;8.894;2023-10-13T02:51:54;101015.44;;;15.21;87.51
78444;BME280;67739;52.986;8.894;2023-10-13T02:54:21;101008.13;;;15.23;87.80
78444;BME280;67739;52.986;8.894;2023-10-13T02:56:46;100997.22;;;15.25;87.65
78444;BME280;67739;52.986;8.894;2023-10-13T02:59:22;100995.38;;;15.25;88.04
78444;BME280;67739;52.986;8.894;2023-10-13T03:02:02;101002.44;;;15.28;87.77
78444;BME280;67739;52.986;8.894;2023-10-13T03:04:46;100993.22;;;15.30;87.90
78444;BME280;67739;52.986;8.894;2023-10-13T03:07:12;100993.13;;;15.32;88.12
78444;BME280;67739;52.986;8.894;2023-10-13T03:09:43;100988.50;;;15.34;88.14
78444;BME280;67739;52.986;8.894;2023-10-13T03:12:16;100994.69;;;15.36;87.91
78444;BME280;67739;52.986;8.894;2023-10-13T03:14:42;100987.44;;;15.36;87.89
78444;BME280;67739;52.986;8.894;2023-10-13T03:17:07;100977.50;;;15.37;88.05
78444;BME280;67739;52.986;8.894;2023-10-13T03:19:46;100993.63;;;15.38;87.86
78444;BME280;67739;52.986;8.894;2023-10-13T03:22:19;100989.09;;;15.39;88.04
78444;BME280;67739;52.986;8.894;2023-10-13T03:24:55;100987.25;;;15.39;88.31
78444;BME280;67739;52.986;8.894;2023-10-13T03:27:25;100986.28;;;15.40;87.95
78444;BME280;67739;52.986;8.894;2023-10-13T03:30:05;100973.53;;;15.42;87.79
78444;BME280;67739;52.986;8.894;2023-10-13T03:32:39;100973.41;;;15.44;87.94
78444;BME280;67739;52.986;8.894;2023-10-13T03:35:09;100968.88;;;15.44;88.16
78444;BME280;67739;52.986;8.894;2023-10-13T03:37:52;100962.50;;;15.45;88.11
78444;BME280;67739;52.986;8.894;2023-10-13T03:40:18;100961.44;;;15.48;88.26
78444;BME280;67739;52.986;8.894;2023-10-13T03:42:53;100960.47;;;15.49;88.27
78444;BME280;67739;52.986;8.894;2023-10-13T03:45:42;100960.38;;;15.50;88.37
78444;BME280;67739;52.986;8.894;2023-10-13T03:48:15;100964.72;;;15.53;88.54
78444;BME280;67739;52.986;8.894;2023-10-13T03:50:50;100961.13;;;15.52;88.55
78444;BME280;67739;52.986;8.894;2023-10-13T03:53:31;100956.50;;;15.54;88.42
78444;BME280;67739;52.986;8.894;2023-10-13T03:56:05;100962.81;;;15.55;88.11
78444;BME280;67739;52.986;8.894;2023-10-13T03:58:40;100953.72;;;15.56;88.31
78444;BME280;67739;52.986;8.894;2023-10-13T04:01:12;100959.91;;;15.58;88.35
78444;BME280;67739;52.986;8.894;2023-10-13T04:03:40;100948.09;;;15.59;88.52
78444;BME280;67739;52.986;8.894;2023-10-13T04:06:25;100950.81;;;15.59;88.64
78444;BME280;67739;52.986;8.894;2023-10-13T04:09:09;100948.88;;;15.61;88.50
78444;BME280;67739;52.986;8.894;2023-10-13T04:11:53;100936.13;;;15.63;88.50
78444;BME280;67739;52.986;8.894;2023-10-13T04:14:45;100935.16;;;15.64;88.78
78444;BME280;67739;52.986;8.894;2023-10-13T04:17:29;100931.47;;;15.65;88.40
78444;BME280;67739;52.986;8.894;2023-10-13T04:20:00;100926.06;;;15.65;88.54
78444;BME280;67739;52.986;8.894;2023-10-13T04:22:28;100927.81;;;15.66;88.68
78444;BME280;67739;52.986;8.894;2023-10-13T04:25:32;100926.72;;;15.69;88.89
78444;BME280;67739;52.986;8.894;2023-10-13T04:28:14;100917.66;;;15.70;88.84
78444;BME280;67739;52.986;8.894;2023-10-13T04:30:49;100908.56;;;15.71;88.59
78444;BME280;67739;52.986;8.894;2023-10-13T04:33:28;100896.88;;;15.70;88.66
78444;BME280;67739;52.986;8.894;2023-10-13T04:36:15;100896.78;;;15.72;88.94
78444;BME280;67739;52.986;8.894;2023-10-13T04:38:44;100895.78;;;15.73;88.61
78444;BME280;67739;52.986;8.894;2023-10-13T04:41:39;100886.84;;;15.72;88.42
78444;BME280;67739;52.986;8.894;2023-10-13T04:44:09;100883.13;;;15.73;88.55
78444;BME280;67739;52.986;8.894;2023-10-13T04:46:54;100884.00;;;15.74;88.70
78444;BME280;67739;52.986;8.894;2023-10-13T04:49:39;100873.94;;;15.76;88.75
78444;BME280;67739;52.986;8.894;2023-10-13T04:52:15;100864.00;;;15.76;88.72
78444;BME280;67739;52.986;8.894;2023-10-13T04:54:59;100860.31;;;15.77;88.88
78444;BME280;67739;52.986;8.894;2023-10-13T04:57:35;100857.50;;;15.79;88.85
78444;BME280;67739;52.986;8.894;2023-10-13T05:00:13;100846.59;;;15.80;89.00
78444;BME280;67739;52.986;8.894;2023-10-13T05:02:46;100847.44;;;15.81;88.84
78444;BME280;67739;52.986;8.894;2023-10-13T05:05:30;100835.75;;;15.80;88.59
78444;BME280;67739;52.986;8.894;2023-10-13T05:08:11;100833.94;;;15.81;88.56
78444;BME280;67739;52.986;8.894;2023-10-13T05:10:55;100832.97;;;15.82;88.79
78444;BME280;67739;52.986;8.894;2023-10-13T05:13:39;100828.41;;;15.82;89.12
78444;BME280;67739;52.986;8.894;2023-10-13T05:16:30;100824.75;;;15.83;88.69
78444;BME280;67739;52.986;8.894;2023-10-13T05:19:14;100825.59;;;15.84;88.66
78444;BME280;67739;52.986;8.894;2023-10-13T05:21:58;100824.63;;;15.85;89.04
78444;BME280;67739;52.986;8.894;2023-10-13T05:24:42;100807.53;;;15.84;88.68
78444;BME280;67739;52.986;8.894;2023-10-13T05:27:26;100805.69;;;15.85;88.69
78444;BME280;67739;52.986;8.894;2023-10-13T05:30:10;100809.28;;;15.85;88.82
78444;BME280;67739;52.986;8.894;2023-10-13T05:32:54;100805.59;;;15.86;88.73
78444;BME280;67739;52.986;8.894;2023-10-13T05:35:38;100794.78;;;15.86;88.91
78444;BME280;67739;52.986;8.894;2023-10-13T05:38:22;100795.59;;;15.87;88.91
78444;BME280;67739;52.986;8.894;2023-10-13T05:41:06;100792.78;;;15.88;88.71
78444;BME280;67739;52.986;8.894;2023-10-13T05:43:50;100790.97;;;15.89;88.88
78444;BME280;67739;52.986;8.894;2023-10-13T05:46:34;100784.69;;;15.88;88.89
78444;BME280;67739;52.986;8.894;2023-10-13T05:49:03;100789.13;;;15.89;88.89
78444;BME280;67739;52.986;8.894;2023-10-13T05:51:34;100783.72;;;15.89;88.87
78444;BME280;67739;52.986;8.894;2023-10-13T05:54:10;100776.47;;;15.90;89.06
78444;BME280;67739;52.986;8.894;2023-10-13T05:56:46;100775.50;;;15.91;88.99
78444;BME280;67739;52.986;8.894;2023-10-13T05:59:44;100771.81;;;15.92;88.83
78444;BME280;67739;52.986;8.894;2023-10-13T06:02:27;100765.53;;;15.91;88.94
78444;BME280;67739;52.986;8.894;2023-10-13T06:05:12;100769.00;;;15.94;89.13
78444;BME280;67739;52.986;8.894;2023-10-13T06:07:57;100761.75;;;15.94;89.13
78444;BME280;67739;52.986;8.894;2023-10-13T06:10:42;100758.19;;;15.94;88.95
78444;BME280;67739;52.986;8.894;2023-10-13T06:13:27;100759.03;;;15.94;88.78
78444;BME280;67739;52.986;8.894;2023-10-13T06:16:14;100753.63;;;15.94;89.00
78444;BME280;67739;52.986;8.894;2023-10-13T06:18:58;100749.09;;;15.95;89.21
78444;BME280;67739;52.986;8.894;2023-10-13T06:21:43;100757.22;;;15.95;89.22
78444;BME280;67739;52.986;8.894;2023-10-13T06:24:27;100753.53;;;15.96;88.95
78444;BME280;67739;52.986;8.894;2023-10-13T06:27:12;100753.53;;;15.96;89.22
78444;BME280;67739;52.986;8.894;2023-10-13T06:29:56;100735.34;;;15.98;89.29
78444;BME280;67739;52.986;8.894;2023-10-13T06:32:22;100730.81;;;15.98;89.41
78444;BME280;67739;52.986;8.894;2023-10-13T06:34:57;100727.13;;;15.99;89.24
78444;BME280;67739;52.986;8.894;2023-10-13T06:37:24;100714.47;;;16.00;89.37
78444;BME280;67739;52.986;8.894;2023-10-13T06:39:57;100711.75;;;16.00;89.42
78444;BME280;67739;52.986;8.894;2023-10-13T06:42:27;100717.06;;;16.01;89.31
78444;BME280;67739;52.986;8.894;2023-10-13T06:44:55;100712.47;;;16.02;89.27
78444;BME280;67739;52.986;8.894;2023-10-13T06:47:22;100697.13;;;16.02;89.45
78444;BME280;67739;52.986;8.894;2023-10-13T06:49:48;100697.97;;;16.03;89.19
78444;BME280;67739;52.986;8.894;2023-10-13T06:52:17;100682.63;;;16.03;89.29
78444;BME280;67739;52.986;8.894;2023-10-13T06:54:42;100687.06;;;16.04;89.41
78444;BME280;67739;52.986;8.894;2023-10-13T06:57:08;100676.13;;;16.06;89.33
78444;BME280;67739;52.986;8.894;2023-10-13T06:59:40;100670.59;;;16.07;89.39
78444;BME280;67739;52.986;8.894;2023-10-13T07:02:06;100667.03;;;16.07;89.54
78444;BME280;67739;52.986;8.894;2023-10-13T07:04:35;100646.25;;;16.07;89.40
78444;BME280;67739;52.986;8.894;2023-10-13T07:07:05;100654.25;;;16.09;89.40
78444;BME280;67739;52.986;8.894;2023-10-13T07:09:31;100653.28;;;16.10;89.56
78444;BME280;67739;52.986;8.894;2023-10-13T07:12:00;100639.75;;;16.10;89.54
78444;BME280;67739;52.986;8.894;2023-10-13T07:14:32;100638.78;;;16.11;89.53
78444;BME280;67739;52.986;8.894;2023-10-13T07:17:05;100626.97;;;16.12;89.38
78444;BME280;67739;52.986;8.894;2023-10-13T07:19:32;100634.13;;;16.13;89.37
78444;BME280;67739;52.986;8.894;2023-10-13T07:22:00;100621.44;;;16.13;89.53
78444;BME280;67739;52.986;8.894;2023-10-13T07:24:44;100641.16;;;16.15;89.83
78444;BME280;67739;52.986;8.894;2023-10-13T07:27:14;100627.63;;;16.15;89.61
78444;BME280;67739;52.986;8.894;2023-10-13T07:29:48;100623.03;;;16.16;89.83
78444;BME280;67739;52.986;8.894;2023-10-13T07:32:19;100611.22;;;16.17;89.50
78444;BME280;67739;52.986;8.894;2023-10-13T07:34:49;100614.81;;;16.17;89.90
78444;BME280;67739;52.986;8.894;2023-10-13T07:37:15;100613.84;;;16.18;89.78
78444;BME280;67739;52.986;8.894;2023-10-13T07:39:41;100631.81;;;16.19;89.71
78444;BME280;67739;52.986;8.894;2023-10-13T07:42:08;100619.13;;;16.20;89.65
78444;BME280;67739;52.986;8.894;2023-10-13T07:44:40;100626.28;;;16.21;89.80
78444;BME280;67739;52.986;8.894;2023-10-13T07:47:11;100624.44;;;16.21;89.86
78444;BME280;67739;52.986;8.894;2023-10-13T07:49:38;100603.66;;;16.22;89.66
78444;BME280;67739;52.986;8.894;2023-10-13T07:52:11;100620.66;;;16.24;89.79
78444;BME280;67739;52.986;8.894;2023-10-13T07:54:47;100610.69;;;16.24;89.68
78444;BME280;67739;52.986;8.894;2023-10-13T07:57:15;100607.88;;;16.26;89.58
78444;BME280;67739;52.986;8.894;2023-10-13T07:59:44;100617.72;;;16.27;89.83
78444;BME280;67739;52.986;8.894;2023-10-13T08:02:18;100618.47;;;16.29;89.66
78444;BME280;67739;52.986;8.894;2023-10-13T08:05:19;100607.50;;;16.31;90.16
78444;BME280;67739;52.986;8.894;2023-10-13T08:08:16;100612.81;;;16.32;89.82
78444;BME280;67739;52.986;8.894;2023-10-13T08:10:42;100617.25;;;16.33;89.68
78444;BME280;67739;52.986;8.894;2023-10-13T08:13:08;100601.75;;;16.35;89.90
78444;BME280;67739;52.986;8.894;2023-10-13T08:15:40;100616.91;;;16.38;89.74
78444;BME280;67739;52.986;8.894;2023-10-13T08:18:12;100626.75;;;16.39;90.01
78444;BME280;67739;52.986;8.894;2023-10-13T08:20:42;100632.06;;;16.40;89.94
78444;BME280;67739;52.986;8.894;2023-10-13T08:23:09;100644.41;;;16.44;89.88
78444;BME280;67739;52.986;8.894;2023-10-13T08:25:45;100635.25;;;16.45;90.08
78444;BME280;67739;52.986;8.894;2023-10-13T08:28:29;100631.47;;;16.48;90.29
78444;BME280;67739;52.986;8.894;2023-10-13T08:31:06;100619.56;;;16.50;90.02
78444;BME280;67739;52.986;8.894;2023-10-13T08:33:48;100622.03;;;16.53;89.94
78444;BME280;67739;52.986;8.894;2023-10-13T08:36:13;100612.94;;;16.54;90.23
78444;BME280;67739;52.986;8.894;2023-10-13T08:38:55;100599.28;;;16.56;90.02
78444;BME280;67739;52.986;8.894;2023-10-13T08:41:22;100597.31;;;16.58;89.79
78444;BME280;67739;52.986;8.894;2023-10-13T08:43:49;100598.03;;;16.60;89.84
78444;BME280;67739;52.986;8.894;2023-10-13T08:46:19;100599.69;;;16.63;89.98
78444;BME280;67739;52.986;8.894;2023-10-13T08:48:56;100603.16;;;16.65;89.86
78444;BME280;67739;52.986;8.894;2023-10-13T08:51:35;100612.03;;;16.67;89.68
78444;BME280;67739;52.986;8.894;2023-10-13T08:54:15;100606.38;;;16.70;89.80
78444;BME280;67739;52.986;8.894;2023-10-13T08:57:06;100599.00;;;16.72;89.52
78444;BME280;67739;52.986;8.894;2023-10-13T08:59:46;100593.31;;;16.75;89.81
78444;BME280;67739;52.986;8.894;2023-10-13T09:02:20;100579.56;;;16.78;89.82
78444;BME280;67739;52.986;8.894;2023-10-13T09:04:47;100586.59;;;16.80;89.64
78444;BME280;67739;52.986;8.894;2023-10-13T09:07:24;100587.34;;;16.82;90.00
78444;BME280;67739;52.986;8.894;2023-10-13T09:09:51;100584.38;;;16.85;90.00
78444;BME280;67739;52.986;8.894;2023-10-13T09:15:11;100574.03;;;16.90;89.60
78444;BME280;67739;52.986;8.894;2023-10-13T09:17:47;100567.53;;;16.93;90.04
78444;BME280;67739;52.986;8.894;2023-10-13T09:20:16;100572.72;;;16.96;89.67
78444;BME280;67739;52.986;8.894;2023-10-13T09:22:54;100578.75;;;17.00;89.76
78444;BME280;67739;52.986;8.894;2023-10-13T09:25:29;100562.38;;;17.01;89.76
78444;BME280;67739;52.986;8.894;2023-10-13T09:27:59;100543.25;;;17.03;89.74
78444;BME280;67739;52.986;8.894;2023-10-13T09:30:26;100541.19;;;17.06;89.68
78444;BME280;67739;52.986;8.894;2023-10-13T09:33:00;100539.09;;;17.10;89.71
78444;BME280;67739;52.986;8.894;2023-10-13T09:35:27;100538.88;;;17.13;89.82
78444;BME280;67739;52.986;8.894;2023-10-13T09:37:53;100533.22;;;17.16;89.81
78444;BME280;67739;52.986;8.894;2023-10-13T09:40:22;100523.94;;;17.18;89.77
78444;BME280;67739;52.986;8.894;2023-10-13T09:42:55;100512.00;;;17.21;89.89
78444;BME280;67739;52.986;8.894;2023-10-13T09:45:28;100508.91;;;17.25;89.79
78444;BME280;67739;52.986;8.894;2023-10-13T09:48:02;100500.53;;;17.28;89.67
78444;BME280;67739;52.986;8.894;2023-10-13T09:50:36;100489.44;;;17.31;89.90
78444;BME280;67739;52.986;8.894;2023-10-13T09:53:04;100480.06;;;17.36;89.81
78444;BME280;67739;52.986;8.894;2023-10-13T09:55:36;100478.97;;;17.38;89.71
78444;BME280;67739;52.986;8.894;2023-10-13T09:58:08;100475.16;;;17.41;89.83
78444;BME280;67739;52.986;8.894;2023-10-13T10:00:41;100475.59;;;17.46;89.91
78444;BME280;67739;52.986;8.894;2023-10-13T10:03:12;100472.53;;;17.50;90.14
78444;BME280;67739;52.986;8.894;2023-10-13T10:05:55;100458.72;;;17.53;89.70
78444;BME280;67739;52.986;8.894;2023-10-13T10:08:29;100462.06;;;17.57;89.76
78444;BME280;67739;52.986;8.894;2023-10-13T10:13:51;100445.03;;;17.66;90.12
78444;BME280;67739;52.986;8.894;2023-10-13T10:16:29;100431.97;;;17.71;89.89
78444;BME280;67739;52.986;8.894;2023-10-13T10:19:01;100436.84;;;17.77;90.06
78444;BME280;67739;52.986;8.894;2023-10-13T10:21:36;100437.22;;;17.84;89.96
78444;BME280;67739;52.986;8.894;2023-10-13T10:24:13;100429.56;;;17.89;90.23
78444;BME280;67739;52.986;8.894;2023-10-13T10:26:50;100438.91;;;17.96;90.33
78444;BME280;67739;52.986;8.894;2023-10-13T10:29:16;100436.66;;;18.01;90.47
78444;BME280;67739;52.986;8.894;2023-10-13T10:31:42;100431.56;;;18.08;90.51
78444;BME280;67739;52.986;8.894;2023-10-13T10:34:20;100441.03;;;18.13;90.16
78444;BME280;67739;52.986;8.894;2023-10-13T10:36:54;100438.94;;;18.17;90.20
78444;BME280;67739;52.986;8.894;2023-10-13T10:39:20;100429.38;;;18.22;90.03
78444;BME280;67739;52.986;8.894;2023-10-13T10:41:46;100429.00;;;18.27;90.13
78444;BME280;67739;52.986;8.894;2023-10-13T10:44:17;100418.63;;;18.32;90.21
78444;BME280;67739;52.986;8.894;2023-10-13T10:47:17;100414.50;;;18.37;90.22
78444;BME280;67739;52.986;8.894;2023-10-13T10:50:02;100425.69;;;18.44;90.05
78444;BME280;67739;52.986;8.894;2023-10-13T10:52:45;100411.56;;;18.50;89.93
78444;BME280;67739;52.986;8.894;2023-10-13T10:55:12;100405.75;;;18.55;89.88
78444;BME280;67739;52.986;8.894;2023-10-13T10:57:40;100408.78;;;18.61;89.89
78444;BME280;67739;52.986;8.894;2023-10-13T11:00:28;100411.13;;;18.66;89.93
78444;BME280;67739;52.986;8.894;2023-10-13T11:03:07;100392.44;;;18.73;89.81
78444;BME280;67739;52.986;8.894;2023-10-13T11:05:43;100376.56;;;18.78;89.50
78444;BME280;67739;52.986;8.894;2023-10-13T11:08:20;100368.88;;;18.83;89.25
78444;BME280;67739;52.986;8.894;2023-10-13T11:10:50;100364.75;;;18.88;89.41
78444;BME280;67739;52.986;8.894;2023-10-13T11:13:15;100344.44;;;18.92;89.51
78444;BME280;67739;52.986;8.894;2023-10-13T11:15:47;100345.03;;;18.96;89.08
78444;BME280;67739;52.986;8.894;2023-10-13T11:18:14;100336.47;;;19.00;88.92
78444;BME280;67739;52.986;8.894;2023-10-13T11:20:48;100325.16;;;19.05;88.81
78444;BME280;67739;52.986;8.894;2023-10-13T11:23:20;100325.59;;;19.10;88.43
78444;BME280;67739;52.986;8.894;2023-10-13T11:25:59;100339.66;;;19.15;88.75
78444;BME280;67739;52.986;8.894;2023-10-13T11:28:25;100333.78;;;19.20;88.39
78444;BME280;67739;52.986;8.894;2023-10-13T11:30:54;100340.53;;;19.25;88.46
78444;BME280;67739;52.986;8.894;2023-10-13T11:33:32;100330.09;;;19.30;88.08
78444;BME280;67739;52.986;8.894;2023-10-13T11:35:58;100315.19;;;19.34;88.26
78444;BME280;67739;52.986;8.894;2023-10-13T11:38:31;100310.19;;;19.39;88.06
78444;BME280;67739;52.986;8.894;2023-10-13T11:41:05;100308.91;;;19.43;88.01
78444;BME280;67739;52.986;8.894;2023-10-13T11:43:34;100310.34;;;19.48;87.69
78444;BME280;67739;52.986;8.894;2023-10-13T11:46:12;100308.94;;;19.53;87.84
78444;BME280;67739;52.986;8.894;2023-10-13T11:48:40;100305.81;;;19.58;87.90
78444;BME280;67739;52.986;8.894;2023-10-13T11:51:12;100303.50;;;19.63;87.29
78444;BME280;67739;52.986;8.894;2023-10-13T11:53:49;100287.59;;;19.68;87.60
78444;BME280;67739;52.986;8.894;2023-10-13T11:56:17;100293.47;;;19.73;87.17
78444;BME280;67739;52.986;8.894;2023-10-13T11:58:46;100293.88;;;19.78;87.10
78444;BME280;67739;52.986;8.894;2023-10-13T12:01:11;100294.31;;;19.83;87.15
78444;BME280;67739;52.986;8.894;2023-10-13T12:03:44;100283.88;;;19.88;87.30
78444;BME280;67739;52.986;8.894;2023-10-13T12:06:29;100276.09;;;19.93;86.99
78444;BME280;67739;52.986;8.894;2023-10-13T12:09:13;100269.22;;;19.99;86.46
78444;BME280;67739;52.986;8.894;2023-10-13T12:11:44;100266.06;;;20.03;86.33
78444;BME280;67739;52.986;8.894;2023-10-13T12:14:14;100272.06;;;20.07;86.42
78444;BME280;67739;52.986;8.894;2023-10-13T12:17:03;100253.41;;;20.12;85.96
78444;BME280;67739;52.986;8.894;2023-10-13T12:19:30;100250.97;;;20.19;85.84
78444;BME280;67739;52.986;8.894;2023-10-13T12:21:56;100243.34;;;20.22;85.64
78444;BME280;67739;52.986;8.894;2023-10-13T12:24:23;100230.28;;;20.26;85.29
78444;BME280;67739;52.986;8.894;2023-10-13T12:27:05;100231.56;;;20.31;84.84
78444;BME280;67739;52.986;8.894;2023-10-13T12:29:51;100234.56;;;20.38;84.61
78444;BME280;67739;52.986;8.894;2023-10-13T12:32:19;100221.66;;;20.40;84.44
78444;BME280;67739;52.986;8.894;2023-10-13T12:34:50;100211.16;;;20.45;84.17
78444;BME280;67739;52.986;8.894;2023-10-13T12:37:32;100217.00;;;20.50;83.80
78444;BME280;67739;52.986;8.894;2023-10-13T12:40:09;100209.09;;;20.57;83.72
78444;BME280;67739;52.986;8.894;2023-10-13T12:42:53;100201.34;;;20.62;83.63
78444;BME280;67739;52.986;8.894;2023-10-13T12:45:41;100202.41;;;20.69;83.46
78444;BME280;67739;52.986;8.894;2023-10-13T12:48:26;100189.34;;;20.72;83.33
78444;BME280;67739;52.986;8.894;2023-10-13T12:51:10;100190.75;;;20.76;83.36
78444;BME280;67739;52.986;8.894;2023-10-13T12:53:54;100194.03;;;20.80;83.19
78444;BME280;67739;52.986;8.894;2023-10-13T12:56:20;100180.53;;;20.78;82.68
78444;BME280;67739;52.986;8.894;2023-10-13T12:58:52;100177.66;;;20.80;82.77
78444;BME280;67739;52.986;8.894;2023-10-13T13:01:25;100178.22;;;20.83;82.64
78444;BME280;67739;52.986;8.894;2023-10-13T13:03:52;100173.47;;;20.86;82.30
78444;BME280;67739;52.986;8.894;2023-10-13T13:06:23;100168.56;;;20.89;82.43
78444;BME280;67739;52.986;8.894;2023-10-13T13:08:56;100165.50;;;20.92;82.05
78444;BME280;67739;52.986;8.894;2023-10-13T13:11:22;100160.63;;;20.96;82.01
78444;BME280;67739;52.986;8.894;2023-10-13T13:13:48;100164.75;;;21.00;81.98
78444;BME280;67739;52.986;8.894;2023-10-13T13:16:14;100153.38;;;21.04;81.77
78444;BME280;67739;52.986;8.894;2023-10-13T13:18:39;100140.41;;;21.06;81.58
78444;BME280;67739;52.986;8.894;2023-10-13T13:21:05;100140.81;;;21.11;81.66
78444;BME280;67739;52.986;8.894;2023-10-13T13:23:37;100135.91;;;21.15;81.58
78444;BME280;67739;52.986;8.894;2023-10-13T13:26:02;100119.38;;;21.16;81.12
78444;BME280;67739;52.986;8.894;2023-10-13T13:28:30;100130.16;;;21.18;80.97
78444;BME280;67739;52.986;8.894;2023-10-13T13:31:02;100130.03;;;21.20;80.70
78444;BME280;67739;52.986;8.894;2023-10-13T13:33:33;100102.41;;;21.23;80.83